Time;durP1;ratioP1;P1;durP2;ratioP2;P2;SDS_P1;SDS_P2;PMS_P1;PMS_P2;Temp;Humidity;BMP_temperature;BMP_pressure;BME280_temperature;BME280_humidity;BME280_pressure;Samples;Min_cycle;Max_cycle;Signal;HPM_P1;HPM_P2
2022/03/23 00:01:24;;;;;;;45.65;20.33;;;9.90;97.80;;;;;;5054831;28;20053;-79
2022/03/23 00:03:50;;;;;;;46.78;20.55;;;9.90;98.00;;;;;;5034258;28;20379;-79
2022/03/23 00:06:17;;;;;;;51.05;20.50;;;10.10;97.40;;;;;;5034708;28;20035;-79
2022/03/23 00:08:46;;;;;;;51.20;20.90;;;10.10;97.40;;;;;;5061516;28;20396;-79
2022/03/23 00:11:12;;;;;;;44.92;20.30;;;10.20;97.10;;;;;;5072994;28;20068;-79
2022/03/23 00:13:38;;;;;;;46.25;20.08;;;10.20;96.80;;;;;;5074602;28;20031;-79
2022/03/23 00:16:05;;;;;;;42.15;20.08;;;10.10;97.40;;;;;;5074450;28;20392;-79
2022/03/23 00:18:32;;;;;;;47.67;20.85;;;9.90;97.60;;;;;;5073361;28;20090;-78
2022/03/23 00:20:57;;;;;;;46.58;20.27;;;9.90;97.50;;;;;;5074275;28;20020;-79
2022/03/23 00:23:23;;;;;;;41.92;20.60;;;10.20;96.90;;;;;;5072881;28;20113;-79
2022/03/23 00:25:49;;;;;;;49.72;21.60;;;10.30;95.70;;;;;;5073757;28;20043;-80
2022/03/23 00:28:14;;;;;;;45.00;20.77;;;10.30;95.40;;;;;;5074204;28;20025;-79
2022/03/23 00:30:40;;;;;;;48.75;21.85;;;10.30;95.50;;;;;;5074099;28;20041;-79
2022/03/23 00:33:06;;;;;;;56.58;23.55;;;9.50;97.90;;;;;;5072907;28;20027;-78
2022/03/23 00:35:32;;;;;;;44.97;23.05;;;9.40;98.90;;;;;;5074125;28;20032;-79
2022/03/23 00:37:59;;;;;;;48.38;22.88;;;9.50;99.00;;;;;;5072546;28;20024;-79
2022/03/23 00:40:28;;;;;;;42.40;22.83;;;9.30;99.30;;;;;;5072577;28;20483;-79
2022/03/23 00:42:55;;;;;;;42.85;21.65;;;9.30;99.90;;;;;;5072465;28;20032;-77
2022/03/23 00:45:22;;;;;;;42.67;23.55;;;9.40;99.30;;;;;;5073912;28;20066;-79
2022/03/23 00:47:49;;;;;;;48.53;23.83;;;9.30;99.80;;;;;;5058793;28;20021;-79
2022/03/23 00:50:15;;;;;;;40.30;21.88;;;9.10;99.90;;;;;;5052249;28;20036;-78
2022/03/23 00:52:42;;;;;;;50.20;22.25;;;9.00;99.90;;;;;;5052386;28;20017;-79
2022/03/23 00:55:09;;;;;;;46.42;23.75;;;9.00;99.90;;;;;;5053556;28;20041;-79
2022/03/23 00:57:36;;;;;;;51.90;24.60;;;9.10;99.90;;;;;;5052422;28;20037;-79
2022/03/23 01:00:06;;;;;;;43.95;22.33;;;9.00;99.90;;;;;;5053603;28;20032;-79
2022/03/23 01:02:34;;;;;;;47.67;21.38;;;9.20;99.90;;;;;;5032246;28;20029;-79
2022/03/23 01:05:01;;;;;;;43.45;22.23;;;9.30;99.90;;;;;;5033512;28;20065;-79
2022/03/23 01:07:27;;;;;;;45.95;22.25;;;9.30;99.80;;;;;;5033157;28;20024;-78
2022/03/23 01:09:52;;;;;;;48.83;24.38;;;9.40;99.90;;;;;;5032295;28;20124;-78
2022/03/23 01:12:18;;;;;;;39.72;22.95;;;9.40;99.70;;;;;;5032861;28;20104;-74
2022/03/23 01:14:46;;;;;;;44.58;24.73;;;9.40;99.70;;;;;;5015996;28;20033;-79
2022/03/23 01:17:12;;;;;;;41.85;22.73;;;9.30;99.10;;;;;;5033279;28;20428;-79
2022/03/23 01:19:38;;;;;;;44.97;23.25;;;9.10;99.60;;;;;;5032232;28;20030;-79
2022/03/23 01:22:05;;;;;;;36.92;21.80;;;8.80;99.90;;;;;;5031695;28;20112;-77
2022/03/23 01:24:30;;;;;;;45.90;22.35;;;8.70;99.90;;;;;;5033173;28;20105;-79
2022/03/23 01:26:56;;;;;;;44.15;22.10;;;8.90;99.90;;;;;;5032033;28;20510;-79
2022/03/23 01:29:22;;;;;;;43.70;23.67;;;8.90;99.90;;;;;;5033207;28;20045;-79
2022/03/23 01:31:48;;;;;;;50.35;24.73;;;8.30;99.90;;;;;;5031868;28;20033;-78
2022/03/23 01:34:15;;;;;;;42.33;23.27;;;7.90;99.90;;;;;;5015567;28;20032;-79
2022/03/23 01:36:41;;;;;;;50.38;23.45;;;8.10;99.90;;;;;;5032756;28;20033;-78
2022/03/23 01:39:06;;;;;;;49.70;23.20;;;8.40;99.90;;;;;;5033197;28;20040;-78
2022/03/23 01:41:35;;;;;;;47.95;24.70;;;8.70;99.90;;;;;;5033023;28;20029;-78
2022/03/23 01:44:01;;;;;;;47.53;23.77;;;8.50;99.90;;;;;;5033173;28;20030;-79
2022/03/23 01:46:28;;;;;;;43.65;23.95;;;8.20;99.90;;;;;;5034129;28;20049;-79
2022/03/23 01:48:56;;;;;;;41.80;22.67;;;8.10;99.90;;;;;;5053064;28;20025;-80
2022/03/23 01:51:21;;;;;;;45.10;23.25;;;7.90;99.90;;;;;;5051843;28;20033;-80
2022/03/23 01:53:47;;;;;;;42.72;23.15;;;7.70;99.90;;;;;;5051974;28;20025;-79
2022/03/23 01:56:14;;;;;;;45.88;24.25;;;7.70;99.90;;;;;;5053449;28;20080;-80
2022/03/23 01:58:41;;;;;;;42.90;24.60;;;7.60;99.90;;;;;;5052443;28;20009;-80
2022/03/23 02:01:10;;;;;;;47.50;24.40;;;7.90;99.90;;;;;;5035591;28;20025;-78
2022/03/23 02:03:36;;;;;;;43.50;23.25;;;8.00;99.90;;;;;;5052959;28;20037;-79
2022/03/23 02:06:02;;;;;;;38.33;22.17;;;8.00;99.90;;;;;;5051143;28;20032;-79
2022/03/23 02:08:28;;;;;;;48.42;24.42;;;7.90;99.90;;;;;;5051438;28;20486;-79
2022/03/23 02:10:54;;;;;;;41.95;23.00;;;7.70;99.90;;;;;;5034950;28;20036;-79
2022/03/23 02:13:29;;;;;;;51.15;24.98;;;7.50;99.90;;;;;;5051267;28;20072;-79
2022/03/23 02:15:58;;;;;;;42.20;22.60;;;7.30;99.90;;;;;;5051462;28;20040;-79
2022/03/23 02:18:26;;;;;;;54.72;22.77;;;7.20;99.90;;;;;;5051100;28;20478;-80
2022/03/23 02:20:53;;;;;;;45.00;23.58;;;7.10;99.90;;;;;;5051174;28;20066;-79
2022/03/23 02:23:19;;;;;;;53.67;24.77;;;7.40;99.90;;;;;;5053973;28;20591;-77
2022/03/23 02:25:48;;;;;;;40.35;23.10;;;8.00;99.90;;;;;;5054940;28;20033;-79
2022/03/23 02:28:14;;;;;;;42.55;23.67;;;8.30;99.90;;;;;;5056901;28;20029;-79
2022/03/23 02:30:40;;;;;;;44.10;23.23;;;8.30;99.90;;;;;;5056388;28;20064;-79
2022/03/23 02:33:06;;;;;;;41.92;22.98;;;8.20;99.90;;;;;;5055150;28;20466;-79
2022/03/23 02:35:32;;;;;;;42.45;23.50;;;8.20;99.90;;;;;;5054861;28;20036;-79
2022/03/23 02:37:58;;;;;;;46.20;23.27;;;8.30;99.90;;;;;;5056378;28;20052;-80
2022/03/23 02:40:23;;;;;;;41.83;24.15;;;8.30;99.90;;;;;;5056175;28;20482;-79
2022/03/23 02:42:49;;;;;;;43.63;23.33;;;8.20;99.90;;;;;;5056391;28;20087;-80
2022/03/23 02:45:15;;;;;;;42.90;23.88;;;8.40;99.90;;;;;;5056324;28;20094;-80
2022/03/23 02:47:42;;;;;;;41.88;22.48;;;8.30;99.90;;;;;;5055639;28;20519;-80
2022/03/23 02:50:08;;;;;;;48.88;23.52;;;7.60;99.90;;;;;;5054642;28;20405;-81
2022/03/23 02:52:34;;;;;;;40.10;23.35;;;7.40;99.90;;;;;;5055975;28;20025;-80
2022/03/23 03:03:48;;;;;;;43.35;23.77;;;7.20;99.90;;;;;;5036560;28;20037;-80
2022/03/23 03:06:13;;;;;;;41.90;24.15;;;7.50;99.90;;;;;;5034738;28;20052;-80
2022/03/23 03:08:45;;;;;;;49.08;23.80;;;7.70;99.90;;;;;;5035859;28;20037;-81
2022/03/23 03:11:11;;;;;;;44.88;23.77;;;7.70;99.90;;;;;;5034659;28;20045;-80
2022/03/23 03:13:39;;;;;;;43.88;22.67;;;7.50;99.90;;;;;;5034298;28;20037;-80
2022/03/23 03:16:05;;;;;;;44.83;23.42;;;7.60;99.90;;;;;;5035776;28;20029;-79
2022/03/23 03:18:32;;;;;;;52.78;24.40;;;7.30;99.90;;;;;;5035330;28;20113;-79
2022/03/23 03:20:58;;;;;;;43.13;23.85;;;7.50;99.90;;;;;;5035733;28;20474;-80
2022/03/23 03:23:25;;;;;;;46.60;23.25;;;7.00;99.90;;;;;;5035505;28;20478;-73
2022/03/23 03:25:51;;;;;;;49.67;24.38;;;7.20;99.90;;;;;;5034471;28;20040;-79
2022/03/23 03:28:17;;;;;;;46.60;24.02;;;6.60;99.90;;;;;;5034266;28;20033;-79
2022/03/23 03:30:43;;;;;;;46.10;24.35;;;6.70;99.90;;;;;;5035481;28;20385;-80
2022/03/23 03:33:08;;;;;;;41.35;24.60;;;6.40;99.90;;;;;;5034883;28;20520;-79
2022/03/23 03:35:34;;;;;;;41.25;23.88;;;6.90;99.90;;;;;;5034659;28;20029;-79
2022/03/23 03:38:00;;;;;;;40.33;23.70;;;6.70;99.90;;;;;;5034287;28;20021;-80
2022/03/23 03:40:26;;;;;;;50.45;23.55;;;6.70;99.90;;;;;;5035159;28;20363;-76
2022/03/23 03:42:51;;;;;;;39.75;23.38;;;6.30;99.90;;;;;;5035319;28;20021;-78
2022/03/23 03:45:17;;;;;;;47.38;22.60;;;6.40;99.90;;;;;;5034043;28;20037;-79
2022/03/23 03:47:44;;;;;;;49.55;23.65;;;6.70;99.90;;;;;;5047712;28;20021;-79
2022/03/23 03:50:10;;;;;;;44.42;24.83;;;6.80;99.90;;;;;;5038471;28;20394;-78
2022/03/23 03:52:36;;;;;;;43.47;23.58;;;6.80;99.90;;;;;;5034997;28;20018;-78
2022/03/23 03:55:02;;;;;;;44.47;23.75;;;6.90;99.90;;;;;;5035084;28;20025;-78
2022/03/23 03:57:28;;;;;;;54.35;24.50;;;6.50;99.90;;;;;;5034961;28;20052;-78
2022/03/23 03:59:54;;;;;;;44.83;23.55;;;6.80;99.90;;;;;;5033757;28;20060;-79
2022/03/23 04:02:20;;;;;;;47.40;24.55;;;6.50;99.90;;;;;;5041315;28;20044;-78
2022/03/23 04:04:46;;;;;;;47.03;23.40;;;6.60;99.90;;;;;;5053216;28;20059;-75
2022/03/23 04:07:12;;;;;;;42.05;22.63;;;6.70;99.90;;;;;;5053572;28;20036;-72
2022/03/23 04:09:38;;;;;;;47.20;22.50;;;6.40;99.90;;;;;;5054540;28;20033;-76
2022/03/23 04:12:04;;;;;;;42.70;23.85;;;6.60;99.90;;;;;;5054634;28;20021;-76
2022/03/23 04:14:30;;;;;;;42.67;22.73;;;6.70;99.90;;;;;;5054433;28;20393;-77
2022/03/23 04:16:55;;;;;;;42.15;22.73;;;6.50;99.90;;;;;;5054411;28;20025;-74
2022/03/23 04:19:21;;;;;;;45.05;22.20;;;6.50;99.90;;;;;;5053113;28;20025;-76
2022/03/23 04:21:47;;;;;;;47.72;22.30;;;6.50;99.90;;;;;;5054480;28;20021;-72
2022/03/23 04:24:13;;;;;;;46.08;22.42;;;6.60;99.90;;;;;;5054209;28;20037;-74
2022/03/23 04:26:39;;;;;;;54.50;23.52;;;6.70;99.90;;;;;;5054053;28;20124;-72
2022/03/23 04:29:06;;;;;;;52.22;23.98;;;6.60;99.90;;;;;;5054364;28;20100;-74
2022/03/23 04:31:32;;;;;;;52.33;22.30;;;6.80;99.90;;;;;;5054017;28;20037;-72
2022/03/23 04:33:57;;;;;;;54.53;23.58;;;6.70;99.90;;;;;;5054249;28;20075;-71
2022/03/23 04:36:23;;;;;;;52.90;23.52;;;6.70;99.90;;;;;;5054091;28;20111;-73
2022/03/23 04:38:49;;;;;;;51.50;25.38;;;6.70;99.90;;;;;;5053881;28;20029;-72
2022/03/23 04:41:15;;;;;;;47.22;22.15;;;6.60;99.90;;;;;;5063363;28;20115;-72
2022/03/23 04:43:41;;;;;;;43.40;23.02;;;6.60;99.90;;;;;;5074133;28;20055;-77
2022/03/23 04:46:07;;;;;;;51.25;23.65;;;6.40;99.90;;;;;;5072720;28;20029;-78
2022/03/23 04:48:33;;;;;;;40.47;22.98;;;6.40;99.90;;;;;;5053765;28;20025;-77
2022/03/23 04:50:59;;;;;;;43.90;21.90;;;6.40;99.90;;;;;;5053855;28;20099;-78
2022/03/23 04:53:25;;;;;;;49.97;23.88;;;6.60;99.90;;;;;;5053818;28;20033;-77
2022/03/23 04:55:51;;;;;;;50.92;25.05;;;6.60;99.90;;;;;;5052134;28;20029;-78
2022/03/23 04:58:16;;;;;;;44.15;25.02;;;6.70;99.90;;;;;;5053785;28;20048;-80
2022/03/23 05:00:42;;;;;;;55.28;25.70;;;6.70;99.90;;;;;;5052235;28;20462;-79
2022/03/23 05:03:08;;;;;;;63.25;25.73;;;6.70;99.90;;;;;;5052056;28;20032;-79
2022/03/23 05:05:34;;;;;;;55.60;25.13;;;6.60;99.90;;;;;;5052267;28;20497;-77
2022/03/23 05:08:00;;;;;;;56.42;25.38;;;6.60;99.90;;;;;;5053504;28;20063;-76
2022/03/23 05:10:27;;;;;;;57.55;24.65;;;6.60;99.90;;;;;;5053400;28;20401;-79
2022/03/23 05:12:53;;;;;;;49.60;23.42;;;6.30;99.90;;;;;;5052268;28;20048;-78
2022/03/23 05:15:19;;;;;;;47.03;24.40;;;6.10;99.90;;;;;;5053031;28;20063;-74
2022/03/23 05:17:45;;;;;;;48.70;24.10;;;6.30;99.90;;;;;;5053135;28;20036;-75
2022/03/23 05:20:12;;;;;;;57.53;24.33;;;6.40;99.90;;;;;;5053528;28;20025;-77
2022/03/23 05:22:38;;;;;;;57.40;24.42;;;6.40;99.90;;;;;;5053360;28;20032;-78
2022/03/23 05:25:05;;;;;;;56.30;25.33;;;6.50;99.90;;;;;;5053042;28;20473;-79
2022/03/23 05:27:35;;;;;;;48.13;23.17;;;6.30;99.90;;;;;;5051937;28;20043;-79
2022/03/23 05:30:04;;;;;;;49.78;23.35;;;6.40;99.90;;;;;;5051641;28;20566;-80
2022/03/23 05:32:30;;;;;;;39.70;23.60;;;6.60;99.90;;;;;;5053146;28;20117;-79
2022/03/23 05:34:55;;;;;;;50.33;25.17;;;6.60;99.90;;;;;;5053106;28;20119;-79
2022/03/23 05:37:22;;;;;;;54.78;23.35;;;6.60;99.90;;;;;;5052922;28;20036;-79
2022/03/23 05:39:48;;;;;;;44.80;24.70;;;6.60;99.90;;;;;;5051842;28;20032;-79
2022/03/23 05:42:14;;;;;;;47.30;22.92;;;6.50;99.90;;;;;;5053052;28;20029;-78
2022/03/23 05:44:40;;;;;;;46.38;23.98;;;6.60;99.90;;;;;;5051455;28;20104;-72
2022/03/23 05:47:06;;;;;;;53.17;24.38;;;6.60;99.90;;;;;;5052598;28;20412;-76
2022/03/23 05:49:32;;;;;;;49.00;25.63;;;6.50;99.90;;;;;;5051626;28;20108;-79
2022/03/23 05:51:57;;;;;;;57.35;24.77;;;6.40;99.90;;;;;;5051627;28;20082;-80
2022/03/23 05:54:23;;;;;;;62.05;25.13;;;6.30;99.90;;;;;;5052540;28;20485;-79
2022/03/23 05:56:50;;;;;;;51.83;27.02;;;6.20;99.90;;;;;;5052263;28;20040;-79
2022/03/23 05:59:17;;;;;;;58.38;27.17;;;6.50;99.90;;;;;;5052539;28;20389;-78
2022/03/23 06:01:43;;;;;;;45.85;26.20;;;6.30;99.90;;;;;;5050869;28;20385;-79
2022/03/23 06:04:09;;;;;;;45.25;25.17;;;6.40;99.90;;;;;;5032984;28;20041;-79
2022/03/23 06:06:35;;;;;;;61.28;26.05;;;6.60;99.90;;;;;;5031513;28;20065;-79
2022/03/23 06:09:01;;;;;;;52.85;25.02;;;6.70;99.90;;;;;;5032713;28;20033;-79
2022/03/23 06:11:27;;;;;;;49.00;25.25;;;6.60;99.90;;;;;;5031176;28;20049;-78
2022/03/23 06:13:52;;;;;;;45.63;25.52;;;6.40;99.90;;;;;;5031379;28;20024;-79
2022/03/23 06:16:18;;;;;;;54.65;25.88;;;6.50;99.90;;;;;;5031528;28;20029;-79
2022/03/23 06:18:46;;;;;;;65.18;28.25;;;6.70;99.90;;;;;;5032516;28;20021;-79
2022/03/23 06:21:11;;;;;;;56.53;26.88;;;6.80;99.90;;;;;;5032675;28;20108;-79
2022/03/23 06:23:37;;;;;;;53.33;26.75;;;7.20;99.90;;;;;;5032778;28;20121;-79
2022/03/23 06:26:04;;;;;;;64.55;26.48;;;7.20;99.90;;;;;;5030887;28;20040;-78
2022/03/23 06:28:31;;;;;;;53.83;28.05;;;7.10;99.90;;;;;;5032552;28;20432;-78
2022/03/23 06:30:58;;;;;;;55.53;25.80;;;7.10;99.90;;;;;;5032684;28;20364;-79
2022/03/23 06:33:24;;;;;;;52.70;26.73;;;7.10;99.90;;;;;;5032418;28;20038;-79
2022/03/23 06:35:51;;;;;;;53.85;26.90;;;7.20;99.90;;;;;;5032539;28;20100;-78
2022/03/23 06:38:17;;;;;;;58.08;29.80;;;7.00;99.90;;;;;;5032405;28;20026;-79
2022/03/23 06:40:43;;;;;;;55.25;27.55;;;6.90;99.90;;;;;;5032197;28;20033;-79
2022/03/23 06:43:09;;;;;;;59.80;28.27;;;7.20;99.90;;;;;;5032320;28;20576;-78
2022/03/23 06:45:35;;;;;;;52.70;28.20;;;7.40;99.90;;;;;;5032374;28;20033;-79
2022/03/23 06:48:02;;;;;;;57.97;26.85;;;7.60;99.90;;;;;;5047589;28;20115;-80
2022/03/23 06:50:28;;;;;;;49.17;28.63;;;7.60;99.90;;;;;;5052278;28;20476;-79
2022/03/23 06:52:53;;;;;;;55.70;28.30;;;7.70;99.90;;;;;;5050922;28;20021;-79
2022/03/23 06:55:19;;;;;;;50.40;27.60;;;7.90;99.90;;;;;;5052151;28;20042;-80
2022/03/23 06:57:45;;;;;;;56.40;27.27;;;7.90;99.90;;;;;;5052076;28;20048;-79
2022/03/23 07:00:13;;;;;;;68.20;29.60;;;7.90;99.90;;;;;;5039075;28;20064;-78
2022/03/23 07:02:44;;;;;;;53.95;26.67;;;7.80;99.90;;;;;;5041222;28;20033;-77
2022/03/23 07:05:11;;;;;;;61.97;28.10;;;8.10;99.90;;;;;;5052228;28;20521;-78
2022/03/23 07:07:37;;;;;;;60.70;28.50;;;8.10;99.90;;;;;;5052127;28;20017;-78
2022/03/23 07:10:04;;;;;;;58.90;28.35;;;8.30;99.90;;;;;;5053875;28;20086;-78
2022/03/23 07:12:31;;;;;;;58.45;30.50;;;8.50;99.90;;;;;;5054562;28;20096;-81
2022/03/23 07:14:57;;;;;;;64.05;29.60;;;8.80;99.90;;;;;;5055535;28;20488;-79
2022/03/23 07:17:23;;;;;;;73.65;30.38;;;8.90;99.90;;;;;;5055640;28;20086;-80
2022/03/23 07:19:49;;;;;;;56.45;28.42;;;8.80;99.90;;;;;;5055413;28;20033;-80
2022/03/23 07:22:15;;;;;;;77.90;30.15;;;8.70;99.90;;;;;;5055683;28;20021;-80
2022/03/23 07:24:42;;;;;;;76.72;31.23;;;8.80;99.90;;;;;;5055053;28;20025;-79
2022/03/23 07:27:08;;;;;;;69.78;31.35;;;9.10;99.90;;;;;;5053843;28;20039;-80
2022/03/23 07:29:35;;;;;;;71.53;31.08;;;9.10;99.90;;;;;;5054903;28;20025;-79
2022/03/23 07:32:01;;;;;;;58.60;29.77;;;9.10;99.90;;;;;;5053640;28;20045;-80
2022/03/23 07:34:27;;;;;;;70.97;32.58;;;9.00;99.90;;;;;;5054808;28;20029;-79
2022/03/23 07:36:52;;;;;;;77.60;32.38;;;9.00;99.90;;;;;;5055091;28;20035;-78
2022/03/23 07:39:24;;;;;;;67.30;30.75;;;9.00;99.90;;;;;;5054421;28;20067;-78
2022/03/23 07:41:50;;;;;;;61.20;31.38;;;9.00;99.90;;;;;;5054770;28;20033;-79
2022/03/23 07:44:20;;;;;;;49.78;30.35;;;8.90;99.90;;;;;;5055142;28;20104;-79
2022/03/23 07:46:46;;;;;;;53.53;30.13;;;8.80;99.90;;;;;;5054822;28;20029;-79
2022/03/23 07:49:13;;;;;;;51.38;29.35;;;8.90;99.90;;;;;;5054625;28;20397;-79
2022/03/23 07:51:39;;;;;;;52.40;30.48;;;9.00;99.90;;;;;;5054645;28;20455;-79
2022/03/23 07:54:06;;;;;;;57.85;32.13;;;9.20;99.90;;;;;;5054010;28;20029;-79
2022/03/23 07:56:32;;;;;;;55.60;30.45;;;9.20;99.90;;;;;;5053849;28;20076;-79
2022/03/23 07:58:58;;;;;;;58.38;32.60;;;9.20;99.90;;;;;;5053688;28;20483;-78
2022/03/23 08:01:24;;;;;;;56.13;32.22;;;9.40;99.90;;;;;;5054506;28;20112;-78
2022/03/23 08:03:51;;;;;;;55.50;32.33;;;9.80;99.90;;;;;;5053407;28;20056;-77
2022/03/23 08:06:17;;;;;;;63.38;33.08;;;10.20;98.90;;;;;;5033931;28;20406;-79
2022/03/23 08:08:42;;;;;;;55.10;32.20;;;10.00;99.70;;;;;;5033692;28;20021;-79
2022/03/23 08:11:08;;;;;;;59.45;33.22;;;10.20;99.40;;;;;;5033722;28;20892;-79
2022/03/23 08:13:34;;;;;;;55.78;33.38;;;10.50;99.80;;;;;;5033006;28;20386;-80
2022/03/23 08:16:04;;;;;;;59.00;33.03;;;10.70;99.90;;;;;;5033817;28;20120;-78
2022/03/23 08:18:29;;;;;;;55.47;32.35;;;11.00;98.80;;;;;;5037389;28;20546;-77
2022/03/23 08:20:55;;;;;;;59.75;34.45;;;11.10;98.60;;;;;;5042271;28;20026;-77
2022/03/23 08:23:21;;;;;;;52.70;33.63;;;11.30;97.90;;;;;;5033509;28;20037;-78
2022/03/23 08:25:47;;;;;;;61.10;34.55;;;11.60;96.90;;;;;;5037569;28;20060;-78
2022/03/23 08:28:17;;;;;;;63.45;33.53;;;12.00;96.80;;;;;;5053722;28;20029;-78
2022/03/23 08:30:43;;;;;;;63.78;34.03;;;12.10;95.80;;;;;;5053733;28;20032;-76
2022/03/23 08:33:10;;;;;;;59.53;34.92;;;12.30;95.30;;;;;;5052582;28;20025;-76
2022/03/23 08:35:36;;;;;;;65.18;35.40;;;12.40;94.50;;;;;;5052360;28;20082;-78
2022/03/23 08:38:03;;;;;;;62.10;33.88;;;12.50;94.80;;;;;;5051999;28;20032;-80
2022/03/23 08:40:29;;;;;;;61.47;34.33;;;12.70;94.80;;;;;;5039424;28;20043;-76
2022/03/23 08:42:57;;;;;;;55.45;32.30;;;13.10;94.00;;;;;;5051312;28;20025;-80
2022/03/23 08:45:23;;;;;;;57.92;33.38;;;12.90;93.90;;;;;;5053415;28;20032;-78
2022/03/23 08:47:49;;;;;;;63.15;34.60;;;12.60;93.60;;;;;;5053342;28;20021;-78
2022/03/23 08:50:16;;;;;;;64.30;34.65;;;12.50;94.20;;;;;;5052973;28;20473;-79
2022/03/23 08:52:42;;;;;;;62.00;36.00;;;12.80;94.20;;;;;;5053142;28;20032;-81
2022/03/23 08:55:10;;;;;;;65.13;33.75;;;12.90;93.70;;;;;;5051524;28;20029;-81
2022/03/23 08:57:37;;;;;;;56.25;34.42;;;12.80;93.70;;;;;;5033796;28;20088;-81
2022/03/23 09:00:05;;;;;;;57.67;33.65;;;12.70;93.70;;;;;;5031890;28;20417;-79
2022/03/23 09:02:32;;;;;;;63.72;33.60;;;13.00;94.00;;;;;;5033008;28;20044;-78
2022/03/23 09:04:57;;;;;;;65.25;34.85;;;13.60;92.90;;;;;;5031229;28;20104;-79
2022/03/23 09:07:23;;;;;;;57.42;34.58;;;14.20;92.00;;;;;;5031493;28;20061;-80
2022/03/23 09:09:50;;;;;;;69.13;35.17;;;14.60;91.80;;;;;;5033109;28;20371;-80
2022/03/23 09:12:16;;;;;;;55.65;34.67;;;14.80;90.80;;;;;;5032548;28;20049;-80
2022/03/23 09:14:42;;;;;;;59.40;35.15;;;14.80;90.00;;;;;;5056045;28;20493;-79
2022/03/23 09:17:08;;;;;;;64.05;35.92;;;15.10;88.90;;;;;;5071879;28;20385;-80
2022/03/23 09:19:35;;;;;;;67.97;37.72;;;15.30;88.70;;;;;;5072238;28;20028;-77
2022/03/23 09:22:01;;;;;;;60.17;36.13;;;15.00;90.40;;;;;;5072838;28;20037;-79
2022/03/23 09:24:28;;;;;;;70.68;36.78;;;14.90;89.40;;;;;;5073080;28;20081;-77
2022/03/23 09:26:55;;;;;;;62.75;35.80;;;15.10;89.30;;;;;;5071546;28;20033;-79
2022/03/23 09:29:21;;;;;;;58.60;36.78;;;15.30;89.70;;;;;;5072901;28;20024;-78
2022/03/23 09:31:47;;;;;;;72.00;38.10;;;15.50;88.40;;;;;;5056637;28;20401;-78
2022/03/23 09:34:14;;;;;;;62.65;37.25;;;15.40;89.00;;;;;;5052736;28;20569;-78
2022/03/23 09:39:24;;;;;;;64.03;36.55;;;16.30;87.90;;;;;;5041851;28;20029;-78
2022/03/23 09:41:51;;;;;;;55.88;32.63;;;16.40;88.10;;;;;;5032122;28;20041;-78
2022/03/23 09:44:17;;;;;;;61.88;36.42;;;15.90;87.30;;;;;;5032182;28;20025;-78
2022/03/23 09:46:43;;;;;;;65.60;38.08;;;16.10;86.70;;;;;;5031264;28;20496;-79
2022/03/23 09:49:10;;;;;;;74.38;36.63;;;16.40;85.80;;;;;;5031749;28;20133;-78
2022/03/23 09:51:39;;;;;;;65.20;37.22;;;16.40;85.60;;;;;;5031815;28;20041;-78
2022/03/23 09:54:07;;;;;;;59.50;36.03;;;16.80;84.70;;;;;;5032604;28;20382;-78
2022/03/23 09:56:33;;;;;;;66.20;38.10;;;16.30;85.70;;;;;;5032188;28;20091;-78
2022/03/23 09:59:02;;;;;;;62.88;37.85;;;16.10;85.60;;;;;;5032235;28;20076;-76
2022/03/23 10:01:28;;;;;;;63.55;37.75;;;16.50;84.40;;;;;;5049650;28;20386;-77
2022/03/23 10:04:12;;;;;;;63.10;37.20;;;16.70;81.70;;;;;;5052405;28;20029;-78
2022/03/23 10:06:59;;;;;;;66.85;37.22;;;17.10;81.00;;;;;;5044220;28;20025;-78
2022/03/23 10:09:48;;;;;;;55.30;34.83;;;17.10;79.50;;;;;;5031186;28;20021;-78
2022/03/23 10:12:42;;;;;;;58.75;36.58;;;16.70;77.60;;;;;;5032524;28;20042;-78
2022/03/23 10:15:45;;;;;;;68.30;39.00;;;16.60;78.00;;;;;;5032589;28;20029;-78
2022/03/23 10:18:20;;;;;;;55.20;35.45;;;16.80;81.60;;;;;;5032153;28;20084;-78
2022/03/23 10:20:46;;;;;;;68.65;40.25;;;17.10;79.90;;;;;;5032137;28;20026;-78
2022/03/23 10:23:12;;;;;;;65.35;39.13;;;17.90;77.60;;;;;;5031927;28;20053;-79
2022/03/23 10:25:40;;;;;;;64.72;39.50;;;18.10;79.30;;;;;;5030864;28;20545;-79
2022/03/23 10:28:16;;;;;;;61.40;39.72;;;18.40;78.60;;;;;;5032404;28;20478;-78
2022/03/23 10:30:42;;;;;;;61.45;38.08;;;18.50;76.40;;;;;;5034906;28;20358;-78
2022/03/23 10:33:23;;;;;;;61.47;38.78;;;18.70;76.00;;;;;;5051693;28;20025;-78
2022/03/23 10:35:49;;;;;;;61.30;34.33;;;18.50;75.00;;;;;;5051144;28;20068;-78
2022/03/23 10:38:20;;;;;;;57.00;37.58;;;18.40;73.30;;;;;;5051901;28;20100;-78
2022/03/23 10:40:48;;;;;;;63.53;41.10;;;18.70;73.60;;;;;;5052226;28;20036;-78
2022/03/23 10:43:20;;;;;;;70.97;40.42;;;19.00;73.10;;;;;;5051985;28;20450;-78
2022/03/23 10:45:47;;;;;;;;;;;19.20;72.50;;;;;;5056175;28;20040;-78
2022/03/23 10:48:19;;;;;;;59.33;40.05;;;18.60;74.40;;;;;;5055422;28;19934;-78
2022/03/23 10:50:53;;;;;;;60.75;38.28;;;18.50;75.40;;;;;;5054786;28;20052;-78
2022/03/23 10:53:31;;;;;;;60.45;37.42;;;18.40;73.80;;;;;;5055705;28;20116;-79
2022/03/23 10:55:57;;;;;;;59.97;38.55;;;18.60;72.80;;;;;;5055763;28;20025;-77
2022/03/23 10:58:25;;;;;;;58.35;36.67;;;19.00;74.40;;;;;;5055859;28;20033;-79
2022/03/23 11:00:55;;;;;;;59.88;36.30;;;19.30;73.70;;;;;;5056940;28;20033;-79
2022/03/23 11:03:34;;;;;;;55.65;35.75;;;19.10;73.20;;;;;;5041534;28;20025;-79
2022/03/23 11:06:00;;;;;;;51.38;34.35;;;19.20;72.10;;;;;;5036147;28;20041;-78
2022/03/23 11:08:26;;;;;;;54.17;34.88;;;19.50;71.70;;;;;;5035856;28;20026;-78
2022/03/23 11:16:31;;;;;;;43.22;30.45;;;19.90;69.10;;;;;;5035330;28;20068;-76
2022/03/23 11:18:58;;;;;;;44.30;31.02;;;19.80;69.90;;;;;;5034433;28;20017;-78
2022/03/23 11:21:24;;;;;;;44.42;31.40;;;20.50;69.50;;;;;;5035029;28;20025;-78
2022/03/23 11:23:50;;;;;;;42.13;29.38;;;20.40;68.70;;;;;;5035209;28;20033;-78
2022/03/23 11:26:16;;;;;;;46.40;30.45;;;20.80;68.20;;;;;;5033980;28;20405;-78
2022/03/23 11:28:47;;;;;;;48.78;31.27;;;21.20;68.30;;;;;;5034095;28;20172;-77
2022/03/23 11:31:18;;;;;;;51.93;30.17;;;21.30;68.10;;;;;;5034868;28;20048;-78
2022/03/23 11:33:49;;;;;;;48.63;33.70;;;21.60;69.40;;;;;;5048493;28;20493;-78
2022/03/23 11:36:17;;;;;;;52.90;32.58;;;21.30;67.50;;;;;;5055063;28;20378;-78
2022/03/23 11:38:43;;;;;;;48.28;32.17;;;20.90;68.30;;;;;;5054806;28;20017;-79
2022/03/23 11:41:10;;;;;;;44.80;28.10;;;21.40;67.70;;;;;;5053548;28;20061;-79
2022/03/23 11:43:37;;;;;;;42.85;27.50;;;21.20;66.50;;;;;;5053620;28;20029;-81
2022/03/23 11:46:04;;;;;;;38.08;26.55;;;21.30;66.20;;;;;;5054751;28;20044;-82
2022/03/23 11:48:42;;;;;;;40.83;27.90;;;21.50;65.60;;;;;;5039021;28;20032;-81
2022/03/23 11:51:19;;;;;;;45.08;27.40;;;22.10;64.40;;;;;;5034641;28;20069;-82
2022/03/23 11:54:28;;;;;;;38.17;27.63;;;22.60;64.20;;;;;;5033304;28;20429;-82
2022/03/23 11:56:56;;;;;;;39.80;28.48;;;21.80;63.70;;;;;;5034547;28;20034;-81
2022/03/23 11:59:33;;;;;;;44.08;27.33;;;22.20;62.90;;;;;;5033578;28;20083;-83
2022/03/23 12:01:59;;;;;;;39.53;26.83;;;21.90;64.10;;;;;;5038098;28;20040;-83
2022/03/23 12:04:27;;;;;;;40.42;28.15;;;22.30;64.50;;;;;;5054237;28;20024;-84
2022/03/23 12:07:04;;;;;;;38.92;27.27;;;23.40;61.90;;;;;;5053443;28;20033;-82
2022/03/23 12:09:34;;;;;;;39.97;27.30;;;23.60;62.10;;;;;;5054096;28;20033;-83
2022/03/23 12:12:02;;;;;;;40.90;27.50;;;23.50;64.00;;;;;;5054347;28;20044;-83
2022/03/23 12:14:27;;;;;;;38.40;26.10;;;23.70;61.60;;;;;;5053988;28;20082;-85
2022/03/23 12:16:53;;;;;;;37.67;26.25;;;23.30;60.60;;;;;;5054512;28;20111;-83
2022/03/23 12:19:26;;;;;;;35.55;24.17;;;23.10;60.10;;;;;;5053261;28;20493;-84
2022/03/23 12:21:58;;;;;;;33.80;24.73;;;24.30;59.20;;;;;;5054769;28;20032;-84
2022/03/23 12:24:33;;;;;;;;;;;24.40;59.70;;;;;;5053006;28;20021;-84
2022/03/23 12:27:03;;;;;;;37.22;22.48;;;24.50;57.50;;;;;;5054157;28;20263;-82
2022/03/23 12:29:34;;;;;;;29.55;22.23;;;27.20;60.20;;;;;;5054253;28;20448;-82
2022/03/23 12:32:10;;;;;;;27.02;19.88;;;26.20;58.40;;;;;;5055889;28;20055;-78
2022/03/23 12:34:41;;;;;;;36.83;23.33;;;24.60;54.70;;;;;;5054360;28;20036;-81
2022/03/23 12:37:12;;;;;;;35.00;25.52;;;23.40;55.70;;;;;;5053253;28;20127;-80
2022/03/23 12:39:51;;;;;;;34.53;23.02;;;22.90;56.20;;;;;;5052277;28;20044;-81
2022/03/23 12:42:18;;;;;;;39.17;21.52;;;23.30;57.90;;;;;;5052758;28;20033;-81
2022/03/23 12:44:48;;;;;;;30.25;21.60;;;24.10;56.20;;;;;;5053735;28;20392;-82
2022/03/23 12:47:22;;;;;;;31.20;20.20;;;24.80;55.50;;;;;;5052700;28;20453;-80
2022/03/23 12:58:23;;;;;;;30.80;21.42;;;25.50;55.00;;;;;;5053719;28;20028;-80
2022/03/23 13:00:51;;;;;;;35.28;19.65;;;24.20;55.40;;;;;;5053550;28;20029;-79